sensor_id;sensor_type;location;lat;lon;timestamp;pressure;altitude;pressure_sealevel;temperature;humidity
38612;BME280;24368;52.156;20.788;2023-03-25T00:01:58;99242.27;;;10.25;100.00
38612;BME280;24368;52.156;20.788;2023-03-25T00:07:00;99238.91;;;10.14;100.00
38612;BME280;24368;52.156;20.788;2023-03-25T00:12:03;99239.06;;;10.16;100.00
38612;BME280;24368;52.156;20.788;2023-03-25T00:22:31;99243.10;;;10.12;100.00
38612;BME280;24368;52.156;20.788;2023-03-25T00:27:34;99232.00;;;10.09;100.00
38612;BME280;24368;52.156;20.788;2023-03-25T00:32:36;99250.55;;;10.05;100.00
38612;BME280;24368;52.156;20.788;2023-03-25T00:37:37;99241.60;;;9.88;100.00
38612;BME280;24368;52.156;20.788;2023-03-25T00:42:39;99239.61;;;9.88;100.00
38612;BME280;24368;52.156;20.788;2023-03-25T00:47:45;99239.13;;;9.88;100.00
38612;BME280;24368;52.156;20.788;2023-03-25T00:52:47;99241.22;;;9.82;100.00
38612;BME280;24368;52.156;20.788;2023-03-25T00:57:49;99238.23;;;9.70;100.00
38612;BME280;24368;52.156;20.788;2023-03-25T01:02:51;99238.82;;;9.66;100.00
38612;BME280;24368;52.156;20.788;2023-03-25T01:07:54;99239.27;;;9.67;100.00
38612;BME280;24368;52.156;20.788;2023-03-25T01:12:56;99239.66;;;9.54;100.00
38612;BME280;24368;52.156;20.788;2023-03-25T01:17:58;99239.50;;;9.43;100.00
38612;BME280;24368;52.156;20.788;2023-03-25T01:22:59;99236.88;;;9.34;100.00
38612;BME280;24368;52.156;20.788;2023-03-25T01:28:02;99243.83;;;9.28;100.00
38612;BME280;24368;52.156;20.788;2023-03-25T01:33:04;99230.98;;;9.22;100.00
38612;BME280;24368;52.156;20.788;2023-03-25T01:38:06;99227.01;;;9.19;100.00
38612;BME280;24368;52.156;20.788;2023-03-25T01:43:09;99234.69;;;9.13;100.00
38612;BME280;24368;52.156;20.788;2023-03-25T01:53:30;99225.56;;;9.03;100.00
38612;BME280;24368;52.156;20.788;2023-03-25T01:58:34;99227.52;;;8.95;100.00
38612;BME280;24368;52.156;20.788;2023-03-25T02:03:36;99241.07;;;8.81;100.00
38612;BME280;24368;52.156;20.788;2023-03-25T02:08:39;99240.91;;;8.70;100.00
38612;BME280;24368;52.156;20.788;2023-03-25T02:13:42;99240.60;;;8.61;100.00
38612;BME280;24368;52.156;20.788;2023-03-25T02:24:33;99229.52;;;8.55;100.00
38612;BME280;24368;52.156;20.788;2023-03-25T02:30:03;99224.40;;;8.49;100.00
38612;BME280;24368;52.156;20.788;2023-03-25T02:35:27;99212.10;;;8.49;100.00
38612;BME280;24368;52.156;20.788;2023-03-25T02:45:50;99230.56;;;8.34;100.00
38612;BME280;24368;52.156;20.788;2023-03-25T02:50:55;99226.75;;;8.24;100.00
38612;BME280;24368;52.156;20.788;2023-03-25T02:56:02;99232.02;;;8.22;100.00
38612;BME280;24368;52.156;20.788;2023-03-25T03:01:05;99230.64;;;8.16;100.00
38612;BME280;24368;52.156;20.788;2023-03-25T03:06:16;99232.58;;;8.22;100.00
38612;BME280;24368;52.156;20.788;2023-03-25T03:21:53;99239.84;;;8.33;100.00
38612;BME280;24368;52.156;20.788;2023-03-25T03:27:34;99240.61;;;8.32;100.00
38612;BME280;24368;52.156;20.788;2023-03-25T03:38:02;99238.84;;;8.07;100.00
38612;BME280;24368;52.156;20.788;2023-03-25T03:43:16;99229.16;;;8.03;100.00
38612;BME280;24368;52.156;20.788;2023-03-25T03:48:27;99233.78;;;8.07;100.00
38612;BME280;24368;52.156;20.788;2023-03-25T03:53:36;99240.13;;;8.08;100.00
38612;BME280;24368;52.156;20.788;2023-03-25T03:58:41;99248.27;;;8.03;100.00
38612;BME280;24368;52.156;20.788;2023-03-25T04:03:52;99239.39;;;7.89;100.00
38612;BME280;24368;52.156;20.788;2023-03-25T04:14:09;99249.40;;;7.91;100.00
38612;BME280;24368;52.156;20.788;2023-03-25T04:19:11;99256.73;;;8.03;100.00
38612;BME280;24368;52.156;20.788;2023-03-25T04:24:19;99257.30;;;8.06;100.00
38612;BME280;24368;52.156;20.788;2023-03-25T04:29:21;99258.64;;;7.93;100.00
38612;BME280;24368;52.156;20.788;2023-03-25T04:34:23;99265.40;;;7.89;100.00
38612;BME280;24368;52.156;20.788;2023-03-25T04:39:25;99266.33;;;7.89;100.00
38612;BME280;24368;52.156;20.788;2023-03-25T04:44:31;99265.09;;;7.92;100.00
38612;BME280;24368;52.156;20.788;2023-03-25T04:49:34;99262.13;;;7.92;100.00
38612;BME280;24368;52.156;20.788;2023-03-25T04:54:36;99260.11;;;7.91;100.00
38612;BME280;24368;52.156;20.788;2023-03-25T04:59:41;99266.35;;;7.87;100.00
38612;BME280;24368;52.156;20.788;2023-03-25T05:04:42;99271.41;;;7.80;100.00
38612;BME280;24368;52.156;20.788;2023-03-25T05:09:47;99271.15;;;7.78;100.00
38612;BME280;24368;52.156;20.788;2023-03-25T05:14:49;99267.87;;;7.82;100.00
38612;BME280;24368;52.156;20.788;2023-03-25T05:19:51;99271.79;;;7.85;100.00
38612;BME280;24368;52.156;20.788;2023-03-25T05:24:53;99274.98;;;7.86;100.00
38612;BME280;24368;52.156;20.788;2023-03-25T05:29:56;99271.71;;;7.86;100.00
38612;BME280;24368;52.156;20.788;2023-03-25T05:35:00;99277.10;;;7.84;100.00
38612;BME280;24368;52.156;20.788;2023-03-25T05:40:02;99284.64;;;7.90;100.00
38612;BME280;24368;52.156;20.788;2023-03-25T05:45:05;99279.98;;;8.03;100.00
38612;BME280;24368;52.156;20.788;2023-03-25T05:50:09;99279.34;;;8.15;100.00
38612;BME280;24368;52.156;20.788;2023-03-25T05:55:17;99287.22;;;8.18;100.00
38612;BME280;24368;52.156;20.788;2023-03-25T06:00:20;99289.66;;;8.23;100.00
38612;BME280;24368;52.156;20.788;2023-03-25T06:05:23;99293.02;;;8.28;100.00
38612;BME280;24368;52.156;20.788;2023-03-25T06:10:25;99291.15;;;8.37;100.00
38612;BME280;24368;52.156;20.788;2023-03-25T06:15:27;99294.90;;;8.49;100.00
38612;BME280;24368;52.156;20.788;2023-03-25T06:20:33;99298.10;;;8.51;100.00
38612;BME280;24368;52.156;20.788;2023-03-25T06:25:35;99297.70;;;8.43;100.00
38612;BME280;24368;52.156;20.788;2023-03-25T06:30:37;99294.88;;;8.45;100.00
38612;BME280;24368;52.156;20.788;2023-03-25T06:35:40;99295.61;;;8.57;100.00
38612;BME280;24368;52.156;20.788;2023-03-25T06:40:43;99296.61;;;8.73;100.00
38612;BME280;24368;52.156;20.788;2023-03-25T06:45:44;99294.39;;;8.78;100.00
38612;BME280;24368;52.156;20.788;2023-03-25T06:50:46;99288.02;;;8.77;100.00
38612;BME280;24368;52.156;20.788;2023-03-25T06:55:48;99286.36;;;8.84;100.00
38612;BME280;24368;52.156;20.788;2023-03-25T07:00:53;99281.33;;;8.98;100.00
38612;BME280;24368;52.156;20.788;2023-03-25T07:05:56;99276.45;;;8.97;100.00
38612;BME280;24368;52.156;20.788;2023-03-25T07:11:05;99280.27;;;8.99;100.00
38612;BME280;24368;52.156;20.788;2023-03-25T07:16:10;99282.35;;;8.96;100.00
38612;BME280;24368;52.156;20.788;2023-03-25T07:21:12;99286.71;;;9.03;100.00
38612;BME280;24368;52.156;20.788;2023-03-25T07:26:14;99286.25;;;9.09;100.00
38612;BME280;24368;52.156;20.788;2023-03-25T07:31:16;99284.20;;;9.21;100.00
38612;BME280;24368;52.156;20.788;2023-03-25T07:36:18;99289.38;;;9.25;100.00
38612;BME280;24368;52.156;20.788;2023-03-25T07:41:22;99291.48;;;9.28;100.00
38612;BME280;24368;52.156;20.788;2023-03-25T07:46:24;99297.27;;;9.33;100.00
38612;BME280;24368;52.156;20.788;2023-03-25T07:51:26;99291.95;;;9.46;100.00
38612;BME280;24368;52.156;20.788;2023-03-25T07:56:28;99298.63;;;9.52;100.00
38612;BME280;24368;52.156;20.788;2023-03-25T08:01:30;99296.95;;;9.54;100.00
38612;BME280;24368;52.156;20.788;2023-03-25T08:06:32;99294.45;;;9.72;100.00
38612;BME280;24368;52.156;20.788;2023-03-25T08:11:34;99287.19;;;9.92;100.00
38612;BME280;24368;52.156;20.788;2023-03-25T08:16:36;99290.05;;;10.12;100.00
38612;BME280;24368;52.156;20.788;2023-03-25T08:21:38;99289.58;;;10.24;100.00
38612;BME280;24368;52.156;20.788;2023-03-25T08:26:40;99284.19;;;10.58;100.00
38612;BME280;24368;52.156;20.788;2023-03-25T08:31:42;99280.80;;;10.84;100.00
38612;BME280;24368;52.156;20.788;2023-03-25T08:36:48;99280.84;;;11.02;100.00
38612;BME280;24368;52.156;20.788;2023-03-25T08:41:49;99276.95;;;11.32;100.00
38612;BME280;24368;52.156;20.788;2023-03-25T08:46:51;99273.33;;;11.65;100.00
38612;BME280;24368;52.156;20.788;2023-03-25T08:51:53;99272.92;;;11.88;100.00
38612;BME280;24368;52.156;20.788;2023-03-25T08:56:55;99272.52;;;12.03;100.00
38612;BME280;24368;52.156;20.788;2023-03-25T09:01:57;99271.61;;;12.39;100.00
38612;BME280;24368;52.156;20.788;2023-03-25T09:06:59;99266.63;;;12.33;100.00
38612;BME280;24368;52.156;20.788;2023-03-25T09:12:01;99274.61;;;12.13;100.00
38612;BME280;24368;52.156;20.788;2023-03-25T09:17:03;99273.20;;;12.02;100.00
38612;BME280;24368;52.156;20.788;2023-03-25T09:22:07;99273.92;;;12.04;100.00
38612;BME280;24368;52.156;20.788;2023-03-25T09:27:08;99269.73;;;12.18;100.00
38612;BME280;24368;52.156;20.788;2023-03-25T09:32:10;99265.35;;;12.07;100.00
38612;BME280;24368;52.156;20.788;2023-03-25T09:37:12;99265.05;;;12.11;100.00
38612;BME280;24368;52.156;20.788;2023-03-25T09:47:34;99261.04;;;12.17;100.00
38612;BME280;24368;52.156;20.788;2023-03-25T09:53:02;99260.13;;;12.16;100.00
38612;BME280;24368;52.156;20.788;2023-03-25T10:09:05;99257.73;;;12.03;100.00
38612;BME280;24368;52.156;20.788;2023-03-25T10:14:26;99254.47;;;12.26;99.73
38612;BME280;24368;52.156;20.788;2023-03-25T10:24:55;99257.79;;;12.75;93.20
38612;BME280;24368;52.156;20.788;2023-03-25T10:35:21;99234.70;;;12.76;90.28
38612;BME280;24368;52.156;20.788;2023-03-25T10:40:39;99237.17;;;13.19;87.36
38612;BME280;24368;52.156;20.788;2023-03-25T10:45:46;99235.48;;;13.17;84.42
38612;BME280;24368;52.156;20.788;2023-03-25T10:50:51;99229.81;;;13.09;86.82
38612;BME280;24368;52.156;20.788;2023-03-25T10:56:14;99227.15;;;13.17;88.26
38612;BME280;24368;52.156;20.788;2023-03-25T11:01:20;99221.51;;;13.17;87.05
38612;BME280;24368;52.156;20.788;2023-03-25T11:06:32;99212.90;;;13.32;86.52
38612;BME280;24368;52.156;20.788;2023-03-25T11:11:35;99202.89;;;13.58;86.17
38612;BME280;24368;52.156;20.788;2023-03-25T11:16:50;99196.41;;;13.50;85.42
38612;BME280;24368;52.156;20.788;2023-03-25T11:22:00;99189.52;;;13.33;85.07
38612;BME280;24368;52.156;20.788;2023-03-25T11:27:06;99179.24;;;13.84;84.21
38612;BME280;24368;52.156;20.788;2023-03-25T11:32:14;99174.67;;;13.95;83.72
38612;BME280;24368;52.156;20.788;2023-03-25T11:37:18;99169.70;;;13.33;86.59
38612;BME280;24368;52.156;20.788;2023-03-25T11:47:34;99170.32;;;13.00;86.45
38612;BME280;24368;52.156;20.788;2023-03-25T11:52:43;99169.57;;;12.93;86.87
38612;BME280;24368;52.156;20.788;2023-03-25T11:57:47;99160.92;;;13.07;86.46
38612;BME280;24368;52.156;20.788;2023-03-25T12:03:20;99157.96;;;13.15;86.58
38612;BME280;24368;52.156;20.788;2023-03-25T12:08:20;99148.02;;;13.49;86.07
38612;BME280;24368;52.156;20.788;2023-03-25T12:19:42;99145.47;;;13.36;84.23
38612;BME280;24368;52.156;20.788;2023-03-25T12:35:38;99137.71;;;13.36;84.08
38612;BME280;24368;52.156;20.788;2023-03-25T12:51:16;99133.33;;;12.82;86.55
38612;BME280;24368;52.156;20.788;2023-03-25T13:07:07;99127.10;;;11.98;100.00
38612;BME280;24368;52.156;20.788;2023-03-25T13:12:16;99135.72;;;11.98;100.00
38612;BME280;24368;52.156;20.788;2023-03-25T13:17:30;99128.42;;;11.79;100.00
38612;BME280;24368;52.156;20.788;2023-03-25T13:22:41;99129.67;;;11.68;100.00
38612;BME280;24368;52.156;20.788;2023-03-25T13:27:45;99124.53;;;11.66;100.00
38612;BME280;24368;52.156;20.788;2023-03-25T13:32:53;99115.33;;;11.80;100.00
38612;BME280;24368;52.156;20.788;2023-03-25T13:38:00;99098.46;;;12.28;100.00
38612;BME280;24368;52.156;20.788;2023-03-25T13:43:23;99089.37;;;12.65;99.23
38612;BME280;24368;52.156;20.788;2023-03-25T13:48:41;99095.85;;;13.32;96.22
38612;BME280;24368;52.156;20.788;2023-03-25T14:15:12;99083.71;;;18.23;69.13
38612;BME280;24368;52.156;20.788;2023-03-25T14:20:25;99084.05;;;18.21;67.85
38612;BME280;24368;52.156;20.788;2023-03-25T14:25:41;99081.58;;;16.83;69.60
38612;BME280;24368;52.156;20.788;2023-03-25T14:31:14;99083.58;;;15.74;72.30
38612;BME280;24368;52.156;20.788;2023-03-25T14:36:30;99087.23;;;14.11;81.96
38612;BME280;24368;52.156;20.788;2023-03-25T14:52:42;99177.02;;;10.42;90.47
38612;BME280;24368;52.156;20.788;2023-03-25T14:57:45;99177.48;;;9.94;97.40
38612;BME280;24368;52.156;20.788;2023-03-25T15:03:04;99175.20;;;9.44;100.00
38612;BME280;24368;52.156;20.788;2023-03-25T15:13:17;99176.58;;;9.31;100.00
38612;BME280;24368;52.156;20.788;2023-03-25T15:23:45;99183.72;;;9.18;100.00
38612;BME280;24368;52.156;20.788;2023-03-25T15:34:41;99171.91;;;9.13;100.00
38612;BME280;24368;52.156;20.788;2023-03-25T15:50:36;99125.30;;;10.62;100.00
38612;BME280;24368;52.156;20.788;2023-03-25T15:55:47;99120.42;;;10.13;100.00
38612;BME280;24368;52.156;20.788;2023-03-25T16:00:52;99118.95;;;9.96;100.00
38612;BME280;24368;52.156;20.788;2023-03-25T16:06:00;99126.08;;;9.87;100.00
38612;BME280;24368;52.156;20.788;2023-03-25T16:16:21;99142.41;;;9.53;100.00
38612;BME280;24368;52.156;20.788;2023-03-25T16:21:23;99151.08;;;9.36;100.00
38612;BME280;24368;52.156;20.788;2023-03-25T16:26:35;99149.55;;;9.17;100.00
38612;BME280;24368;52.156;20.788;2023-03-25T16:31:37;99152.61;;;9.12;100.00
38612;BME280;24368;52.156;20.788;2023-03-25T16:36:46;99141.17;;;9.13;100.00
38612;BME280;24368;52.156;20.788;2023-03-25T16:41:51;99135.77;;;9.00;100.00
38612;BME280;24368;52.156;20.788;2023-03-25T16:46:53;99133.75;;;8.98;100.00
38612;BME280;24368;52.156;20.788;2023-03-25T16:51:57;99142.38;;;8.99;100.00
38612;BME280;24368;52.156;20.788;2023-03-25T16:57:01;99140.73;;;8.96;100.00
38612;BME280;24368;52.156;20.788;2023-03-25T17:07:25;99158.32;;;8.92;100.00
38612;BME280;24368;52.156;20.788;2023-03-25T17:12:28;99163.45;;;8.81;100.00
38612;BME280;24368;52.156;20.788;2023-03-25T17:17:45;99171.04;;;8.77;100.00
38612;BME280;24368;52.156;20.788;2023-03-25T17:28:22;99176.89;;;8.86;100.00
38612;BME280;24368;52.156;20.788;2023-03-25T17:33:32;99177.92;;;8.77;100.00
38612;BME280;24368;52.156;20.788;2023-03-25T17:38:46;99168.88;;;8.75;100.00
38612;BME280;24368;52.156;20.788;2023-03-25T17:43:52;99166.86;;;8.69;100.00
38612;BME280;24368;52.156;20.788;2023-03-25T17:48:57;99164.02;;;8.79;100.00
38612;BME280;24368;52.156;20.788;2023-03-25T17:53:59;99160.44;;;8.82;100.00
38612;BME280;24368;52.156;20.788;2023-03-25T17:59:05;99164.00;;;8.88;100.00
38612;BME280;24368;52.156;20.788;2023-03-25T18:04:11;99166.66;;;8.97;100.00
38612;BME280;24368;52.156;20.788;2023-03-25T18:09:21;99173.58;;;8.97;100.00
38612;BME280;24368;52.156;20.788;2023-03-25T18:14:24;99179.39;;;9.01;100.00
38612;BME280;24368;52.156;20.788;2023-03-25T18:19:27;99186.65;;;9.10;100.00
38612;BME280;24368;52.156;20.788;2023-03-25T18:24:32;99187.15;;;9.09;100.00
38612;BME280;24368;52.156;20.788;2023-03-25T18:29:34;99192.88;;;8.99;100.00
38612;BME280;24368;52.156;20.788;2023-03-25T18:34:38;99201.54;;;8.86;100.00
38612;BME280;24368;52.156;20.788;2023-03-25T18:39:41;99217.04;;;8.68;100.00
38612;BME280;24368;52.156;20.788;2023-03-25T18:44:42;99231.50;;;8.51;100.00
38612;BME280;24368;52.156;20.788;2023-03-25T18:49:44;99227.75;;;8.31;100.00
38612;BME280;24368;52.156;20.788;2023-03-25T18:54:46;99225.23;;;8.30;100.00
38612;BME280;24368;52.156;20.788;2023-03-25T18:59:48;99215.02;;;8.31;100.00
38612;BME280;24368;52.156;20.788;2023-03-25T19:04:50;99209.60;;;8.27;100.00
38612;BME280;24368;52.156;20.788;2023-03-25T19:09:52;99215.98;;;7.93;100.00
38612;BME280;24368;52.156;20.788;2023-03-25T19:14:54;99209.05;;;7.72;100.00
38612;BME280;24368;52.156;20.788;2023-03-25T19:19:56;99202.14;;;7.76;100.00
38612;BME280;24368;52.156;20.788;2023-03-25T19:24:58;99198.84;;;7.85;100.00
38612;BME280;24368;52.156;20.788;2023-03-25T19:30:00;99191.84;;;7.90;100.00
38612;BME280;24368;52.156;20.788;2023-03-25T19:35:03;99190.70;;;7.94;100.00
38612;BME280;24368;52.156;20.788;2023-03-25T19:40:07;99196.02;;;7.90;100.00
38612;BME280;24368;52.156;20.788;2023-03-25T19:45:10;99197.80;;;7.90;100.00
38612;BME280;24368;52.156;20.788;2023-03-25T19:50:17;99196.78;;;7.91;100.00
38612;BME280;24368;52.156;20.788;2023-03-25T19:55:20;99187.19;;;7.86;100.00
38612;BME280;24368;52.156;20.788;2023-03-25T20:00:24;99186.79;;;7.78;100.00
38612;BME280;24368;52.156;20.788;2023-03-25T20:05:29;99184.91;;;7.78;100.00
38612;BME280;24368;52.156;20.788;2023-03-25T20:10:31;99180.19;;;7.76;100.00
38612;BME280;24368;52.156;20.788;2023-03-25T20:15:34;99175.34;;;7.72;100.00
38612;BME280;24368;52.156;20.788;2023-03-25T20:20:38;99173.14;;;7.63;100.00
38612;BME280;24368;52.156;20.788;2023-03-25T20:25:40;99176.39;;;7.49;100.00
38612;BME280;24368;52.156;20.788;2023-03-25T20:30:44;99175.79;;;7.40;100.00
38612;BME280;24368;52.156;20.788;2023-03-25T20:35:46;99180.48;;;7.37;100.00
38612;BME280;24368;52.156;20.788;2023-03-25T20:40:51;99175.29;;;7.38;100.00
38612;BME280;24368;52.156;20.788;2023-03-25T20:45:55;99175.12;;;7.33;100.00
38612;BME280;24368;52.156;20.788;2023-03-25T20:51:01;99173.54;;;7.28;100.00
38612;BME280;24368;52.156;20.788;2023-03-25T20:56:05;99173.16;;;7.22;100.00
38612;BME280;24368;52.156;20.788;2023-03-25T21:01:06;99177.23;;;7.24;100.00
38612;BME280;24368;52.156;20.788;2023-03-25T21:06:08;99172.15;;;7.28;100.00
38612;BME280;24368;52.156;20.788;2023-03-25T21:11:12;99172.25;;;7.29;100.00
38612;BME280;24368;52.156;20.788;2023-03-25T21:16:13;99174.83;;;7.29;100.00
38612;BME280;24368;52.156;20.788;2023-03-25T21:21:15;99173.90;;;7.26;100.00
38612;BME280;24368;52.156;20.788;2023-03-25T21:26:17;99164.40;;;7.22;100.00
38612;BME280;24368;52.156;20.788;2023-03-25T21:31:20;99163.57;;;7.20;100.00
38612;BME280;24368;52.156;20.788;2023-03-25T21:36:27;99157.84;;;7.18;100.00
38612;BME280;24368;52.156;20.788;2023-03-25T21:41:29;99165.14;;;7.18;100.00
38612;BME280;24368;52.156;20.788;2023-03-25T21:46:31;99161.70;;;7.07;100.00
38612;BME280;24368;52.156;20.788;2023-03-25T21:51:34;99161.63;;;7.03;100.00
38612;BME280;24368;52.156;20.788;2023-03-25T21:56:42;99160.27;;;7.02;100.00
38612;BME280;24368;52.156;20.788;2023-03-25T22:01:44;99165.34;;;7.04;100.00
38612;BME280;24368;52.156;20.788;2023-03-25T22:06:46;99159.44;;;7.08;100.00
38612;BME280;24368;52.156;20.788;2023-03-25T22:11:48;99162.27;;;7.03;100.00
38612;BME280;24368;52.156;20.788;2023-03-25T22:16:49;99161.90;;;7.12;100.00
38612;BME280;24368;52.156;20.788;2023-03-25T22:21:51;99161.63;;;7.20;100.00
38612;BME280;24368;52.156;20.788;2023-03-25T22:26:53;99164.83;;;7.28;100.00
38612;BME280;24368;52.156;20.788;2023-03-25T22:31:55;99166.27;;;7.24;100.00
38612;BME280;24368;52.156;20.788;2023-03-25T22:36:56;99175.07;;;7.20;100.00
38612;BME280;24368;52.156;20.788;2023-03-25T22:41:58;99170.19;;;7.25;100.00
38612;BME280;24368;52.156;20.788;2023-03-25T22:47:00;99172.45;;;7.22;100.00
38612;BME280;24368;52.156;20.788;2023-03-25T22:52:03;99168.55;;;7.17;100.00
38612;BME280;24368;52.156;20.788;2023-03-25T22:57:06;99169.66;;;7.10;100.00
38612;BME280;24368;52.156;20.788;2023-03-25T23:02:09;99166.61;;;7.17;100.00
38612;BME280;24368;52.156;20.788;2023-03-25T23:07:13;99170.59;;;7.25;100.00
38612;BME280;24368;52.156;20.788;2023-03-25T23:12:23;99172.45;;;7.28;100.00
38612;BME280;24368;52.156;20.788;2023-03-25T23:17:26;99169.78;;;7.22;100.00
38612;BME280;24368;52.156;20.788;2023-03-25T23:22:28;99170.63;;;7.12;100.00
38612;BME280;24368;52.156;20.788;2023-03-25T23:27:31;99168.60;;;7.08;100.00
38612;BME280;24368;52.156;20.788;2023-03-25T23:32:34;99166.85;;;7.06;100.00
38612;BME280;24368;52.156;20.788;2023-03-25T23:37:36;99163.83;;;6.99;100.00
38612;BME280;24368;52.156;20.788;2023-03-25T23:42:38;99171.34;;;6.99;100.00
38612;BME280;24368;52.156;20.788;2023-03-25T23:47:40;99169.15;;;7.00;100.00
38612;BME280;24368;52.156;20.788;2023-03-25T23:52:41;99176.65;;;6.95;100.00
38612;BME280;24368;52.156;20.788;2023-03-25T23:57:43;99167.32;;;6.84;100.00
